Time;durP1;ratioP1;P1;durP2;ratioP2;P2;SDS_P1;SDS_P2;PMS_P1;PMS_P2;Temp;Humidity;BMP_temperature;BMP_pressure;BME280_temperature;BME280_humidity;BME280_pressure;Samples;Min_cycle;Max_cycle;Signal;HPM_P1;HPM_P2
2022/07/09 00:00:25;;;;;;;5.95;4.97;;;;;;;14.13;100.00;102702.28;1031254;28;20455;-80
2022/07/09 00:00:57;;;;;;;5.65;5.20;;;;;;;13.97;100.00;102697.19;1031277;28;20300;-79
2022/07/09 00:01:29;;;;;;;4.85;4.22;;;;;;;14.02;100.00;102700.97;1031349;28;20047;-79
2022/07/09 00:02:00;;;;;;;6.28;5.00;;;;;;;13.88;100.00;102702.69;1030749;28;20133;-79
2022/07/09 00:02:34;;;;;;;8.57;4.82;;;;;;;13.80;100.00;102705.50;1031140;28;20051;-80
2022/07/09 00:03:05;;;;;;;6.35;5.35;;;;;;;13.84;100.00;102709.47;1031101;28;20431;-80
2022/07/09 00:03:37;;;;;;;5.40;4.93;;;;;;;14.05;100.00;102702.44;1030959;28;20057;-80
2022/07/09 00:04:09;;;;;;;5.75;5.10;;;;;;;14.12;100.00;102695.28;1031834;28;20451;-80
2022/07/09 00:04:41;;;;;;;5.38;4.88;;;;;;;14.10;100.00;102702.69;1035524;28;20053;-79
2022/07/09 00:05:13;;;;;;;11.73;5.47;;;;;;;13.98;100.00;102698.88;1034774;28;20411;-80
2022/07/09 00:05:48;;;;;;;8.55;5.07;;;;;;;13.89;100.00;102701.66;1034932;28;20053;-79
2022/07/09 00:06:19;;;;;;;7.15;5.43;;;;;;;13.84;100.00;102698.75;1033830;28;20373;-79
2022/07/09 00:06:51;;;;;;;5.47;4.97;;;;;;;13.85;100.00;102712.97;1030938;28;20044;-79
2022/07/09 00:07:22;;;;;;;5.85;5.05;;;;;;;13.91;100.00;102701.47;1031014;28;20043;-79
2022/07/09 00:07:54;;;;;;;6.07;4.50;;;;;;;14.07;100.00;102703.06;1035150;28;20304;-79
2022/07/09 00:08:26;;;;;;;6.75;5.63;;;;;;;14.15;100.00;102705.59;1035326;28;20462;-79
2022/07/09 00:08:58;;;;;;;10.15;5.18;;;;;;;14.13;100.00;102702.28;1035012;28;20096;-79
2022/07/09 00:09:30;;;;;;;7.97;5.50;;;;;;;14.11;100.00;102701.66;1030518;28;20128;-79
2022/07/09 00:10:01;;;;;;;6.40;4.97;;;;;;;14.00;100.00;102705.69;1031412;28;20050;-79
2022/07/09 00:10:33;;;;;;;5.95;5.28;;;;;;;13.83;100.00;102693.59;1026892;28;20051;-80
2022/07/09 00:11:05;;;;;;;6.93;4.95;;;;;;;14.02;100.00;102705.50;1027626;28;20043;-79
2022/07/09 00:11:36;;;;;;;7.25;4.35;;;;;;;14.16;100.00;102699.22;1030760;28;20042;-79
2022/07/09 00:12:08;;;;;;;6.78;5.10;;;;;;;14.05;100.00;102705.94;1030933;28;20050;-79
2022/07/09 00:12:40;;;;;;;4.82;4.40;;;;;;;13.91;100.00;102704.16;1031651;28;20038;-79
2022/07/09 00:13:11;;;;;;;5.00;4.53;;;;;;;13.73;100.00;102707.31;1031172;28;20304;-80
2022/07/09 00:13:43;;;;;;;5.28;4.50;;;;;;;13.87;100.00;102702.88;1031057;28;20511;-79
2022/07/09 00:14:14;;;;;;;4.28;3.97;;;;;;;13.84;100.00;102698.75;1030799;28;20046;-79
2022/07/09 00:14:46;;;;;;;14.55;4.97;;;;;;;13.61;100.00;102703.47;1031213;28;20653;-79
2022/07/09 00:15:18;;;;;;;4.18;3.88;;;;;;;13.49;100.00;102710.34;1035520;28;20069;-79
2022/07/09 00:15:50;;;;;;;4.43;3.70;;;;;;;13.47;100.00;102707.03;1034723;28;20042;-80
2022/07/09 00:16:21;;;;;;;5.55;4.10;;;;;;;13.45;100.00;102709.06;1034312;28;20111;-79
2022/07/09 00:16:53;;;;;;;5.60;5.20;;;;;;;13.36;100.00;102704.84;1031623;28;20042;-79
2022/07/09 00:17:25;;;;;;;7.05;4.60;;;;;;;13.29;100.00;102705.59;1031202;28;20061;-79
2022/07/09 00:17:57;;;;;;;6.35;4.38;;;;;;;13.25;100.00;102698.13;1034772;28;20296;-79
2022/07/09 00:18:29;;;;;;;7.57;5.10;;;;;;;13.43;100.00;102708.44;1035506;28;20411;-79
2022/07/09 00:19:01;;;;;;;5.25;4.07;;;;;;;13.65;100.00;102704.72;1034904;28;20304;-79
2022/07/09 00:19:33;;;;;;;6.75;4.80;;;;;;;13.76;100.00;102709.59;1034943;28;20359;-79
2022/07/09 00:20:05;;;;;;;5.60;4.85;;;;;;;13.85;100.00;102700.41;1031073;28;21511;-79
2022/07/09 00:20:37;;;;;;;12.88;6.03;;;;;;;13.85;100.00;102694.22;1024928;28;20444;-79
2022/07/09 00:21:09;;;;;;;5.70;5.18;;;;;;;13.92;100.00;102698.59;1027183;28;20497;-80
2022/07/09 00:21:41;;;;;;;5.88;5.38;;;;;;;14.00;100.00;102697.66;1027583;28;20034;-79
2022/07/09 00:22:12;;;;;;;6.35;5.60;;;;;;;14.07;100.00;102703.06;1031888;28;20039;-79
2022/07/09 00:22:46;;;;;;;6.82;5.38;;;;;;;14.05;100.00;102702.44;1034939;28;20124;-79
2022/07/09 00:23:17;;;;;;;6.43;5.85;;;;;;;13.86;100.00;102702.06;1030630;28;20058;-79
2022/07/09 00:23:49;;;;;;;6.20;4.93;;;;;;;13.67;100.00;102699.19;1031361;28;20523;-80
2022/07/09 00:24:21;;;;;;;5.30;4.78;;;;;;;13.60;100.00;102701.81;1031025;28;20408;-79
2022/07/09 00:24:52;;;;;;;6.30;4.95;;;;;;;13.64;100.00;102700.41;1030567;28;20265;-79
2022/07/09 00:25:24;;;;;;;5.22;4.72;;;;;;;13.56;100.00;102695.19;1031608;28;20297;-80
2022/07/09 00:25:55;;;;;;;5.13;4.63;;;;;;;13.53;100.00;102695.56;1034489;28;20413;-79
2022/07/09 00:26:27;;;;;;;5.00;4.43;;;;;;;13.53;100.00;102693.72;1030868;28;20054;-80
2022/07/09 00:26:59;;;;;;;4.95;4.53;;;;;;;13.50;100.00;102701.31;1027103;28;20412;-80
2022/07/09 00:27:30;;;;;;;8.70;4.47;;;;;;;13.33;100.00;102695.34;1027035;28;20382;-79
2022/07/09 00:28:02;;;;;;;7.78;4.40;;;;;;;13.23;100.00;102690.28;1027602;28;20062;-79
2022/07/09 00:28:33;;;;;;;7.10;4.53;;;;;;;13.16;100.00;102700.06;1031530;28;20049;-79
2022/07/09 00:29:06;;;;;;;5.43;4.28;;;;;;;13.23;100.00;102694.81;1035104;28;20049;-79
2022/07/09 00:29:37;;;;;;;4.20;3.55;;;;;;;13.35;100.00;102695.97;1035109;28;20053;-80
2022/07/09 00:30:09;;;;;;;4.13;3.83;;;;;;;13.08;100.00;102699.31;1034972;28;20033;-80
2022/07/09 00:30:41;;;;;;;5.10;4.70;;;;;;;13.19;100.00;102694.38;1035432;28;20070;-80
2022/07/09 00:31:12;;;;;;;6.88;4.45;;;;;;;13.08;100.00;102692.13;1034743;28;20057;-80
2022/07/09 00:31:45;;;;;;;6.47;4.43;;;;;;;13.23;100.00;102695.66;1035077;28;20687;-79
2022/07/09 00:32:18;;;;;;;4.75;4.35;;;;;;;13.10;100.00;102692.78;1034783;28;20308;-79
2022/07/09 00:32:49;;;;;;;8.63;4.63;;;;;;;13.23;100.00;102695.66;1031364;28;20388;-79
2022/07/09 00:33:21;;;;;;;7.88;5.57;;;;;;;13.19;100.00;102697.06;1030851;28;20034;-79
2022/07/09 00:33:53;;;;;;;5.10;4.60;;;;;;;13.36;100.00;102696.81;1031699;28;20034;-79
2022/07/09 00:34:25;;;;;;;4.63;4.22;;;;;;;13.50;100.00;102698.63;1031519;28;20053;-79
2022/07/09 00:34:56;;;;;;;5.25;4.85;;;;;;;13.36;100.00;102694.97;1035095;28;20045;-79
2022/07/09 00:35:28;;;;;;;7.05;5.28;;;;;;;13.20;100.00;102697.88;1035178;28;20057;-79
2022/07/09 00:36:00;;;;;;;5.53;5.03;;;;;;;13.39;100.00;102694.56;1035376;28;20037;-79
2022/07/09 00:36:32;;;;;;;7.50;5.50;;;;;;;13.26;100.00;102694.44;1034699;28;20050;-79
2022/07/09 00:37:05;;;;;;;8.95;5.00;;;;;;;13.22;100.00;102693.16;1034618;28;21949;-79
2022/07/09 00:37:36;;;;;;;6.65;5.00;;;;;;;13.25;100.00;102695.47;1035345;28;20056;-79
2022/07/09 00:38:08;;;;;;;5.75;5.18;;;;;;;13.25;100.00;102693.63;1034405;28;20042;-79
2022/07/09 00:38:39;;;;;;;5.90;5.32;;;;;;;13.19;100.00;102694.38;1030913;28;20049;-79
2022/07/09 00:39:11;;;;;;;5.60;5.15;;;;;;;13.18;100.00;102698.06;1031254;28;20049;-79
2022/07/09 00:39:42;;;;;;;7.07;5.40;;;;;;;13.18;100.00;102692.72;1034696;28;20041;-79
2022/07/09 00:40:14;;;;;;;6.22;5.82;;;;;;;13.17;100.00;102696.41;1035008;28;20129;-79
2022/07/09 00:40:46;;;;;;;6.88;6.13;;;;;;;13.08;100.00;102692.13;1035210;28;20045;-79
2022/07/09 00:41:17;;;;;;;6.00;5.03;;;;;;;13.27;100.00;102688.91;1034916;28;20048;-79
2022/07/09 00:41:49;;;;;;;6.20;4.97;;;;;;;13.39;100.00;102693.75;1030637;28;20042;-79
2022/07/09 00:42:20;;;;;;;6.38;4.60;;;;;;;13.48;100.00;102698.00;1027223;28;20046;-79
2022/07/09 00:42:52;;;;;;;8.07;5.43;;;;;;;13.56;100.00;102697.84;1027121;28;20043;-79
2022/07/09 00:43:23;;;;;;;6.20;4.90;;;;;;;13.32;100.00;102692.84;1027237;28;20054;-79
2022/07/09 00:43:55;;;;;;;9.43;5.30;;;;;;;13.23;100.00;102690.28;1031267;28;20112;-79
2022/07/09 00:44:27;;;;;;;7.80;5.18;;;;;;;13.21;100.00;102691.50;1030808;28;20069;-80
2022/07/09 00:44:58;;;;;;;5.80;4.88;;;;;;;13.14;100.00;102691.38;1030746;28;20317;-79
2022/07/09 00:45:30;;;;;;;7.88;5.30;;;;;;;13.18;100.00;102691.88;1027590;28;20306;-79
2022/07/09 00:46:01;;;;;;;7.90;4.22;;;;;;;13.38;100.00;102692.09;1024942;28;20410;-80
2022/07/09 00:46:33;;;;;;;5.18;4.68;;;;;;;13.42;100.00;102686.19;1026978;28;20049;-80
2022/07/09 00:47:06;;;;;;;8.13;5.05;;;;;;;13.33;100.00;102689.16;1027531;28;20047;-80
2022/07/09 00:47:38;;;;;;;7.75;5.20;;;;;;;13.45;100.00;102695.69;1028020;28;20051;-80
2022/07/09 00:48:09;;;;;;;5.35;4.85;;;;;;;13.37;100.00;102685.06;1026579;28;20038;-80
2022/07/09 00:48:41;;;;;;;5.38;4.88;;;;;;;13.36;100.00;102688.78;1027032;28;20123;-80
2022/07/09 00:49:12;;;;;;;5.75;5.10;;;;;;;13.26;100.00;102689.91;1027779;28;20310;-79
2022/07/09 00:49:44;;;;;;;4.20;3.90;;;;;;;13.43;100.00;102692.38;1030857;28;20359;-79
2022/07/09 00:50:16;;;;;;;5.65;4.57;;;;;;;13.45;100.00;102693.00;1038835;28;20868;-79
2022/07/09 00:50:48;;;;;;;5.35;4.88;;;;;;;13.60;100.00;102688.41;1039103;28;20434;-80
2022/07/09 00:51:19;;;;;;;7.57;5.50;;;;;;;13.72;100.00;102689.59;1034990;28;20050;-79
2022/07/09 00:51:51;;;;;;;6.20;5.65;;;;;;;13.85;100.00;102683.50;1034640;28;20303;-79
2022/07/09 00:52:23;;;;;;;9.88;6.25;;;;;;;13.70;100.00;102691.63;1030899;28;20363;-79
2022/07/09 00:52:54;;;;;;;5.53;4.97;;;;;;;13.75;100.00;102694.56;1030670;28;20050;-79
2022/07/09 00:53:26;;;;;;;5.35;4.82;;;;;;;13.73;100.00;102688.56;1031024;28;20093;-80
2022/07/09 00:53:59;;;;;;;6.53;5.30;;;;;;;13.75;100.00;102688.38;1031157;28;20046;-79
2022/07/09 00:54:30;;;;;;;7.38;5.10;;;;;;;13.78;100.00;102682.63;1027006;28;20785;-79
2022/07/09 00:55:02;;;;;;;5.85;5.32;;;;;;;13.76;100.00;102685.50;1030174;28;20324;-79
2022/07/09 00:55:35;;;;;;;4.50;4.10;;;;;;;13.56;100.00;102684.47;1026557;28;20042;-79
2022/07/09 00:56:07;;;;;;;4.95;4.55;;;;;;;13.23;100.00;102681.44;1027998;28;20326;-80
2022/07/09 00:56:39;;;;;;;4.10;3.70;;;;;;;13.14;100.00;102680.66;1030866;28;20045;-80
2022/07/09 00:57:11;;;;;;;4.43;3.97;;;;;;;13.16;100.00;102685.88;1031178;28;20293;-79
2022/07/09 00:57:43;;;;;;;4.70;4.30;;;;;;;13.18;100.00;102684.69;1036923;28;20117;-79
2022/07/09 00:58:18;;;;;;;5.57;4.60;;;;;;;13.08;100.00;102680.59;1038742;28;20300;-79
2022/07/09 00:58:50;;;;;;;3.88;3.58;;;;;;;13.24;100.00;102673.22;1039073;28;20370;-79
2022/07/09 00:59:22;;;;;;;5.10;4.28;;;;;;;13.30;100.00;102683.16;1034114;28;20519;-79
2022/07/09 00:59:54;;;;;;;5.78;4.47;;;;;;;13.17;100.00;102677.69;1033820;28;20303;-79
2022/07/09 01:00:25;;;;;;;5.30;4.47;;;;;;;13.21;100.00;102681.63;1030976;28;20051;-79
2022/07/09 01:00:57;;;;;;;5.05;3.75;;;;;;;13.04;100.00;102677.47;1031515;28;20632;-79
2022/07/09 01:01:29;;;;;;;5.10;3.67;;;;;;;13.02;100.00;102679.50;1032422;28;20311;-79
2022/07/09 01:02:01;;;;;;;4.85;4.35;;;;;;;12.90;100.00;102679.16;1030858;28;20046;-79
2022/07/09 01:02:34;;;;;;;4.55;4.15;;;;;;;13.19;100.00;102675.66;1033824;28;20074;-80
2022/07/09 01:03:05;;;;;;;6.20;3.47;;;;;;;13.24;100.00;102675.91;1035399;28;20120;-79
2022/07/09 01:03:37;;;;;;;4.28;3.50;;;;;;;13.24;100.00;102673.22;1034947;28;20511;-79
2022/07/09 01:04:09;;;;;;;4.40;4.00;;;;;;;13.06;100.00;102683.47;1034218;28;20053;-80
2022/07/09 01:04:40;;;;;;;5.32;4.38;;;;;;;13.02;100.00;102676.84;1031222;28;20054;-80
2022/07/09 01:05:12;;;;;;;4.63;4.20;;;;;;;12.97;100.00;102674.72;1031266;28;20054;-80
2022/07/09 01:05:43;;;;;;;4.40;3.80;;;;;;;12.86;100.00;102671.69;1035105;28;20508;-80
2022/07/09 01:06:15;;;;;;;4.55;4.13;;;;;;;12.88;100.00;102675.03;1034785;28;20309;-80
2022/07/09 01:06:47;;;;;;;4.40;3.97;;;;;;;13.03;100.00;102667.78;1031222;28;20054;-79
2022/07/09 01:07:18;;;;;;;5.78;4.57;;;;;;;13.00;100.00;102669.00;1031270;28;20312;-79
2022/07/09 01:07:50;;;;;;;6.88;4.25;;;;;;;12.82;100.00;102670.41;1030702;28;20042;-79
2022/07/09 01:08:22;;;;;;;5.13;4.63;;;;;;;12.81;100.00;102672.25;1031184;28;20349;-79
2022/07/09 01:08:54;;;;;;;5.20;4.65;;;;;;;12.72;100.00;102669.88;1030934;28;20305;-79
2022/07/09 01:09:26;;;;;;;4.43;4.03;;;;;;;12.80;100.00;102673.25;1031115;28;20304;-79
2022/07/09 01:09:57;;;;;;;5.65;4.85;;;;;;;12.84;100.00;102673.72;1034302;28;20304;-80
2022/07/09 01:10:29;;;;;;;5.00;4.53;;;;;;;13.05;100.00;102668.44;1030537;28;20305;-79
2022/07/09 01:11:01;;;;;;;5.15;4.60;;;;;;;13.10;100.00;102665.19;1026957;28;20361;-79
2022/07/09 01:11:32;;;;;;;4.88;4.47;;;;;;;12.92;100.00;102665.59;1027680;28;20072;-79
2022/07/09 01:12:05;;;;;;;5.00;4.60;;;;;;;12.79;100.00;102668.94;1030547;28;20054;-79
2022/07/09 01:12:36;;;;;;;7.07;5.05;;;;;;;12.83;100.00;102662.19;1031429;28;20297;-80
2022/07/09 01:13:08;;;;;;;5.15;4.65;;;;;;;13.01;100.00;102667.16;1031046;28;20305;-80
2022/07/09 01:13:40;;;;;;;11.65;5.45;;;;;;;13.18;100.00;102663.28;1030340;28;20049;-79
2022/07/09 01:14:11;;;;;;;6.85;4.60;;;;;;;13.14;100.00;102664.63;1026664;28;20051;-80
2022/07/09 01:14:43;;;;;;;5.25;4.82;;;;;;;13.33;100.00;102667.75;1027297;28;20122;-80
2022/07/09 01:15:14;;;;;;;6.85;4.80;;;;;;;13.29;100.00;102678.84;1027046;28;20051;-80
2022/07/09 01:15:46;;;;;;;9.23;4.80;;;;;;;13.15;100.00;102671.66;1027106;28;20301;-79
2022/07/09 01:16:17;;;;;;;5.60;5.10;;;;;;;13.17;100.00;102669.66;1030534;28;20050;-79
2022/07/09 01:17:00;;;;;;;7.28;5.10;;;;;;;12.88;100.00;102664.34;1035755;28;20053;-79
2022/07/09 01:17:39;;;;;;;6.28;4.63;;;;;;;13.06;100.00;102664.75;1039206;28;20339;-79
2022/07/09 01:18:12;;;;;;;5.18;4.55;;;;;;;12.92;100.00;102666.44;1033556;28;20042;-79
2022/07/09 01:18:45;;;;;;;5.18;4.68;;;;;;;12.92;100.00;102653.06;1030642;28;20807;-79
2022/07/09 01:19:16;;;;;;;5.63;5.13;;;;;;;12.86;100.00;102666.34;1027354;28;20306;-80
2022/07/09 01:19:48;;;;;;;6.68;4.95;;;;;;;12.75;100.00;102670.31;1028386;28;20309;-80
2022/07/09 01:20:23;;;;;;;10.77;5.10;;;;;;;12.72;100.00;102659.16;1027506;28;20302;-79
2022/07/09 01:20:54;;;;;;;7.72;5.13;;;;;;;12.68;100.00;102661.38;1030028;28;20039;-80
2022/07/09 01:21:26;;;;;;;7.53;5.22;;;;;;;12.66;100.00;102666.94;1035659;28;20398;-79
2022/07/09 01:21:58;;;;;;;5.00;4.57;;;;;;;12.78;100.00;102659.25;1036894;28;20049;-79
2022/07/09 01:22:36;;;;;;;6.13;5.25;;;;;;;12.74;100.00;102666.00;1035303;28;20347;-79
2022/07/09 01:23:10;;;;;;;4.93;4.53;;;;;;;12.71;100.00;102662.84;1036019;28;20308;-80
2022/07/09 01:23:41;;;;;;;5.22;4.80;;;;;;;12.72;100.00;102661.84;1031441;28;20301;-80
2022/07/09 01:24:13;;;;;;;7.10;5.22;;;;;;;12.63;100.00;102667.31;1027491;28;20808;-80
2022/07/09 01:24:45;;;;;;;5.70;5.18;;;;;;;12.61;100.00;102663.97;1027901;28;20310;-79
2022/07/09 01:25:18;;;;;;;9.55;5.78;;;;;;;12.63;100.00;102658.44;1031805;28;20305;-80
2022/07/09 01:25:50;;;;;;;6.32;5.70;;;;;;;12.67;100.00;102652.53;1032014;28;20081;-80
2022/07/09 01:26:23;;;;;;;9.73;5.40;;;;;;;12.72;100.00;102659.16;1031560;28;20320;-79
2022/07/09 01:26:55;;;;;;;6.72;5.35;;;;;;;12.66;100.00;102658.91;1026693;28;20059;-79
2022/07/09 01:27:27;;;;;;;5.78;5.28;;;;;;;12.84;100.00;102657.66;1028462;28;20313;-80
2022/07/09 01:27:58;;;;;;;9.55;5.80;;;;;;;12.75;100.00;102661.47;1031329;28;20376;-80
2022/07/09 01:28:30;;;;;;;7.25;5.32;;;;;;;12.73;100.00;102652.81;1036321;28;20693;-79
2022/07/09 01:29:02;;;;;;;6.85;5.95;;;;;;;12.69;100.00;102650.50;1039305;28;20057;-80
2022/07/09 01:29:34;;;;;;;7.32;5.32;;;;;;;12.72;100.00;102653.81;1031398;28;20825;-79
2022/07/09 01:30:05;;;;;;;6.18;5.57;;;;;;;12.73;100.00;102650.97;1031864;28;20285;-80
2022/07/09 01:30:40;;;;;;;6.57;5.95;;;;;;;12.80;100.00;102643.03;1030924;28;20640;-80
2022/07/09 01:31:12;;;;;;;7.63;6.07;;;;;;;12.79;100.00;102644.03;1028590;28;20294;-80
2022/07/09 01:31:44;;;;;;;7.22;5.60;;;;;;;12.76;100.00;102641.72;1031442;28;20306;-80
2022/07/09 01:32:16;;;;;;;8.63;6.15;;;;;;;12.76;100.00;102639.88;1031981;28;20675;-80
2022/07/09 01:32:48;;;;;;;9.50;6.40;;;;;;;12.78;100.00;102642.38;1027599;28;20806;-80
2022/07/09 01:33:19;;;;;;;6.78;6.05;;;;;;;12.88;100.00;102642.94;1028155;28;20811;-80
2022/07/09 01:33:51;;;;;;;6.95;6.32;;;;;;;12.91;100.00;102647.91;1027910;28;20294;-80
2022/07/09 01:34:23;;;;;;;6.50;5.90;;;;;;;12.98;100.00;102646.13;1027355;28;20798;-80
2022/07/09 01:34:54;;;;;;;6.50;5.47;;;;;;;13.02;100.00;102647.41;1035645;28;20041;-80
2022/07/09 01:35:26;;;;;;;7.90;6.55;;;;;;;13.09;100.00;102647.47;1036420;28;20308;-80
2022/07/09 01:35:58;;;;;;;8.20;6.35;;;;;;;13.10;100.00;102652.63;1039631;28;20060;-80
2022/07/09 01:36:30;;;;;;;7.88;7.05;;;;;;;13.22;100.00;102648.50;1038530;28;20071;-80
2022/07/09 01:37:01;;;;;;;9.38;6.53;;;;;;;13.20;100.00;102647.03;1031974;28;20042;-80
2022/07/09 01:37:33;;;;;;;8.00;7.20;;;;;;;13.22;100.00;102645.81;1027619;28;20891;-80
2022/07/09 01:38:04;;;;;;;7.00;5.88;;;;;;;13.19;100.00;102651.56;1031628;28;20049;-80
2022/07/09 01:38:36;;;;;;;6.55;5.65;;;;;;;12.86;100.00;102644.94;1032469;28;20691;-79
2022/07/09 01:39:08;;;;;;;7.25;6.65;;;;;;;12.73;100.00;102639.44;1034047;28;20373;-79
2022/07/09 01:39:49;;;;;;;6.53;5.93;;;;;;;12.73;100.00;102639.44;1038587;28;20642;-79
2022/07/09 01:40:23;;;;;;;7.05;5.93;;;;;;;12.51;100.00;102636.69;1031800;28;20046;-80
2022/07/09 01:40:55;;;;;;;6.47;5.88;;;;;;;12.51;100.00;102641.19;1031569;28;20289;-80
2022/07/09 01:41:26;;;;;;;6.78;5.72;;;;;;;12.45;100.00;102642.78;1031309;28;20309;-80
2022/07/09 01:41:58;;;;;;;11.13;5.95;;;;;;;12.36;100.00;102644.72;1031633;28;20366;-80
2022/07/09 01:42:29;;;;;;;6.30;5.78;;;;;;;12.36;100.00;102635.88;1031690;28;20305;-80
2022/07/09 01:43:01;;;;;;;6.65;5.97;;;;;;;12.36;100.00;102642.03;1034902;28;20305;-80
2022/07/09 01:43:33;;;;;;;4.97;4.55;;;;;;;12.57;100.00;102646.63;1035921;28;20305;-80
2022/07/09 01:44:06;;;;;;;6.40;5.90;;;;;;;12.77;100.00;102635.38;1035579;28;20694;-80
2022/07/09 01:44:38;;;;;;;7.20;5.55;;;;;;;12.97;100.00;102639.94;1034940;28;20308;-80
2022/07/09 01:45:10;;;;;;;7.35;6.60;;;;;;;12.98;100.00;102646.13;1031918;28;20352;-80
2022/07/09 01:45:42;;;;;;;7.28;6.65;;;;;;;12.90;100.00;102641.72;1039457;28;20300;-79
2022/07/09 01:46:14;;;;;;;6.22;4.72;;;;;;;12.58;100.00;102644.78;1039836;28;20288;-80
2022/07/09 01:46:45;;;;;;;5.70;5.28;;;;;;;12.51;100.00;102642.03;1039657;28;20314;-80
2022/07/09 01:47:17;;;;;;;7.07;5.70;;;;;;;12.51;100.00;102635.84;1039025;28;20379;-80
2022/07/09 01:47:49;;;;;;;6.53;5.95;;;;;;;12.55;100.00;102637.97;1031855;28;20332;-80
2022/07/09 01:48:20;;;;;;;5.68;5.18;;;;;;;12.73;100.00;102639.44;1031999;28;20297;-80
2022/07/09 01:48:52;;;;;;;7.50;6.75;;;;;;;12.79;100.00;102633.34;1029754;28;20792;-80
2022/07/09 01:49:23;;;;;;;8.32;6.20;;;;;;;12.91;100.00;102643.38;1031712;28;20355;-80
2022/07/09 01:49:55;;;;;;;7.07;6.38;;;;;;;13.01;100.00;102637.72;1031601;28;20302;-80
2022/07/09 01:50:26;;;;;;;6.95;6.25;;;;;;;12.94;100.00;102636.81;1032237;28;20305;-80
2022/07/09 01:50:58;;;;;;;7.07;6.28;;;;;;;12.97;100.00;102631.94;1031948;28;20309;-80
2022/07/09 01:51:34;;;;;;;6.85;5.93;;;;;;;12.98;100.00;102627.41;1031353;28;20317;-80
2022/07/09 01:52:06;;;;;;;5.78;5.28;;;;;;;12.96;100.00;102629.44;1031609;28;20061;-80
2022/07/09 01:52:38;;;;;;;9.82;5.50;;;;;;;12.92;100.00;102629.00;1031215;28;20293;-80
2022/07/09 01:53:09;;;;;;;9.02;5.22;;;;;;;12.73;100.00;102626.06;1032378;28;20305;-80
2022/07/09 01:53:41;;;;;;;7.68;5.57;;;;;;;12.59;100.00;102627.72;1030927;28;20369;-80
2022/07/09 01:54:12;;;;;;;5.45;5.03;;;;;;;12.75;100.00;102624.03;1023579;29;20303;-80
2022/07/09 01:54:44;;;;;;;6.03;5.53;;;;;;;12.60;100.00;102630.25;1023555;29;20311;-80
2022/07/09 01:55:16;;;;;;;7.43;5.03;;;;;;;12.55;100.00;102623.78;1023899;28;20310;-80
2022/07/09 01:55:47;;;;;;;7.03;5.95;;;;;;;12.49;100.00;102622.69;1028171;28;20286;-80
2022/07/09 01:56:19;;;;;;;5.50;4.85;;;;;;;12.66;100.00;102629.50;1031647;28;20322;-80
2022/07/09 01:56:50;;;;;;;5.38;4.88;;;;;;;12.73;100.00;102623.41;1035454;28;20301;-81
2022/07/09 01:57:22;;;;;;;5.78;5.38;;;;;;;12.75;100.00;102638.22;1035178;28;20297;-80
2022/07/09 01:57:54;;;;;;;9.27;7.18;;;;;;;12.86;100.00;102639.59;1031585;28;20365;-80
2022/07/09 01:58:26;;;;;;;8.35;6.78;;;;;;;12.88;100.00;102643.75;1031148;28;20309;-79
2022/07/09 01:58:57;;;;;;;9.00;6.93;;;;;;;12.93;100.00;102643.19;1027861;28;20780;-80
2022/07/09 01:59:29;;;;;;;8.80;7.43;;;;;;;12.99;100.00;102650.47;1027663;28;20302;-80
2022/07/09 02:00:00;;;;;;;6.60;5.95;;;;;;;12.94;100.00;102642.19;1031627;28;20805;-80
2022/07/09 02:00:43;;;;;;;7.82;6.13;;;;;;;13.00;100.00;102644.09;1031248;28;20297;-80
2022/07/09 02:01:15;;;;;;;7.55;6.75;;;;;;;12.99;100.00;102634.41;1031325;28;20314;-80
2022/07/09 02:01:47;;;;;;;7.05;6.00;;;;;;;13.03;100.00;102634.88;1031842;28;20777;-80
2022/07/09 02:02:19;;;;;;;7.28;6.53;;;;;;;13.07;100.00;102636.97;1031390;28;20501;-80
2022/07/09 02:02:51;;;;;;;7.72;6.72;;;;;;;13.05;100.00;102636.31;1031607;28;20802;-80
2022/07/09 02:03:22;;;;;;;8.63;7.70;;;;;;;13.08;100.00;102641.31;1028373;28;20313;-80
2022/07/09 02:03:54;;;;;;;7.68;6.65;;;;;;;13.04;100.00;102642.69;1031256;28;20317;-80
2022/07/09 02:04:25;;;;;;;8.30;7.40;;;;;;;13.06;100.00;102639.84;1031523;28;20671;-80
2022/07/09 02:04:58;;;;;;;7.32;6.70;;;;;;;13.10;100.00;102628.56;1031534;28;20832;-80
2022/07/09 02:05:29;;;;;;;6.90;6.32;;;;;;;13.15;100.00;102634.19;1031197;28;20496;-80
2022/07/09 02:06:01;;;;;;;8.98;6.45;;;;;;;13.12;100.00;102634.53;1031625;28;20317;-80
2022/07/09 02:06:33;;;;;;;7.28;5.80;;;;;;;13.16;100.00;102633.19;1031557;28;20826;-80
2022/07/09 02:07:04;;;;;;;11.30;7.28;;;;;;;13.21;100.00;102638.00;1032260;28;20320;-80
2022/07/09 02:07:36;;;;;;;7.05;6.25;;;;;;;13.23;100.00;102633.28;1035523;28;20391;-80
2022/07/09 02:08:08;;;;;;;5.90;5.40;;;;;;;13.27;100.00;102632.69;1035295;28;20293;-80
2022/07/09 02:08:39;;;;;;;6.13;5.63;;;;;;;13.26;100.00;102631.03;1032031;28;20297;-80
2022/07/09 02:09:11;;;;;;;8.65;5.72;;;;;;;13.13;100.00;102625.50;1035337;28;20730;-80
2022/07/09 02:09:42;;;;;;;8.02;6.25;;;;;;;13.09;100.00;102623.41;1035548;28;20305;-80
2022/07/09 02:10:14;;;;;;;7.90;5.95;;;;;;;12.68;100.00;102623.97;1031532;28;20129;-80
2022/07/09 02:10:48;;;;;;;6.10;5.60;;;;;;;12.83;100.00;102626.59;1030887;28;20302;-80
2022/07/09 02:11:20;;;;;;;7.28;5.40;;;;;;;12.78;100.00;102627.16;1031514;28;20313;-80
2022/07/09 02:11:51;;;;;;;7.20;6.55;;;;;;;12.49;100.00;102630.69;1023506;29;20043;-80
2022/07/09 02:12:23;;;;;;;7.78;5.28;;;;;;;12.36;100.00;102631.34;1026970;28;20309;-80
2022/07/09 02:12:54;;;;;;;7.68;5.63;;;;;;;12.10;100.00;102627.47;1023637;29;20357;-80
2022/07/09 02:13:26;;;;;;;7.00;5.20;;;;;;;11.93;100.00;102627.59;1024299;28;20295;-80
2022/07/09 02:13:58;;;;;;;5.53;4.60;;;;;;;12.00;100.00;102617.84;1031078;28;20300;-80
2022/07/09 02:14:30;;;;;;;6.60;5.15;;;;;;;11.88;100.00;102618.47;1031058;28;20633;-80
2022/07/09 02:15:01;;;;;;;5.43;4.93;;;;;;;11.78;100.00;102624.09;1031522;28;20313;-80
2022/07/09 02:15:34;;;;;;;6.63;4.88;;;;;;;11.75;100.00;102619.06;1031658;28;20882;-80
2022/07/09 02:16:06;;;;;;;5.97;5.47;;;;;;;12.00;100.00;102620.53;1031370;28;20297;-80
2022/07/09 02:16:38;;;;;;;8.93;6.03;;;;;;;12.04;100.00;102619.13;1031764;28;20308;-80
2022/07/09 02:17:09;;;;;;;6.13;5.63;;;;;;;12.19;100.00;102616.50;1031182;28;20293;-80
2022/07/09 02:17:41;;;;;;;6.22;5.68;;;;;;;12.10;100.00;102624.78;1031813;28;20743;-80
2022/07/09 02:18:13;;;;;;;7.55;5.38;;;;;;;12.07;100.00;102618.81;1032060;28;20333;-80
2022/07/09 02:18:44;;;;;;;6.43;5.45;;;;;;;12.22;100.00;102624.13;1031630;28;20305;-80
2022/07/09 02:19:16;;;;;;;7.20;5.85;;;;;;;12.02;100.00;102621.16;1031854;28;20806;-80
2022/07/09 02:19:48;;;;;;;6.15;5.55;;;;;;;12.23;100.00;102616.97;1032117;28;20668;-80
2022/07/09 02:20:20;;;;;;;5.57;5.10;;;;;;;12.26;100.00;102616.59;1035313;28;20292;-80
2022/07/09 02:20:52;;;;;;;6.00;5.53;;;;;;;12.33;100.00;102620.22;1035470;28;20307;-80
2022/07/09 02:21:24;;;;;;;7.63;5.97;;;;;;;12.20;100.00;102622.66;1027256;28;20321;-80
2022/07/09 02:21:56;;;;;;;8.32;5.70;;;;;;;12.00;100.00;102617.84;1023683;29;20352;-80
2022/07/09 02:22:27;;;;;;;5.78;5.32;;;;;;;11.98;100.00;102614.53;1023493;29;20641;-80
2022/07/09 02:22:59;;;;;;;5.85;5.35;;;;;;;11.92;100.00;102609.94;1024320;28;20302;-80
2022/07/09 02:23:30;;;;;;;7.93;5.68;;;;;;;11.91;100.00;102621.63;1031758;28;20297;-80
2022/07/09 02:24:02;;;;;;;9.98;5.90;;;;;;;12.00;100.00;102609.84;1031561;28;20320;-80
2022/07/09 02:24:33;;;;;;;6.78;5.60;;;;;;;12.12;100.00;102609.41;1035394;28;21371;-80
2022/07/09 02:25:06;;;;;;;15.52;7.45;;;;;;;11.98;100.00;102611.03;1031277;28;20305;-80
2022/07/09 02:25:38;;;;;;;8.32;6.53;;;;;;;11.92;100.00;102609.94;1031334;28;20309;-79
2022/07/09 02:26:09;;;;;;;9.38;7.13;;;;;;;11.85;100.00;102614.34;1027261;28;20958;-79
2022/07/09 02:26:41;;;;;;;6.40;5.82;;;;;;;11.88;100.00;102608.63;1027943;28;20302;-80
2022/07/09 02:27:12;;;;;;;7.78;6.35;;;;;;;11.87;100.00;102612.31;1027342;28;20309;-80